Time;durP1;ratioP1;P1;durP2;ratioP2;P2;SDS_P1;SDS_P2;PMS_P1;PMS_P2;Temp;Humidity;BMP_temperature;BMP_pressure;BME280_temperature;BME280_humidity;BME280_pressure;Samples;Min_cycle;Max_cycle;Signal;HPM_P1;HPM_P2
2023/08/01 08:37:38;;;;;;;;;4.75;3.00;;;;;23.20;49.38;100172.81;4997364;28;45333;-41
2023/08/01 08:40:04;;;;;;;;;3.50;2.25;;;;;23.20;48.85;100169.34;4997316;28;45254;-42
2023/08/01 08:42:30;;;;;;;;;3.00;2.00;;;;;23.23;48.96;100179.66;4997566;28;45164;-46
2023/08/01 08:45:00;;;;;;;;;2.75;2.25;;;;;23.23;49.23;100169.94;4997120;28;46463;-42
2023/08/01 08:47:28;;;;;;;;;3.50;2.75;;;;;23.24;48.78;100178.69;4997194;28;45275;-41
2023/08/01 08:49:56;;;;;;;;;2.50;2.00;;;;;23.23;48.82;100175.22;4997451;28;45295;-44
2023/08/01 08:52:23;;;;;;;;;2.00;2.00;;;;;23.25;48.62;100175.09;4997600;28;45247;-43
2023/08/01 08:54:49;;;;;;;;;2.00;2.00;;;;;23.25;48.96;100180.38;4997204;28;46489;-44
2023/08/01 08:57:15;;;;;;;;;2.00;1.75;;;;;23.25;48.76;100172.44;4997000;28;45428;-43
2023/08/01 08:59:41;;;;;;;;;3.50;2.00;;;;;23.25;48.51;100177.75;4997226;28;45383;-44
2023/08/01 09:02:06;;;;;;;;;3.50;2.00;;;;;23.26;48.89;100187.34;4997236;28;45498;-43
2023/08/01 09:04:32;;;;;;;;;4.75;2.75;;;;;23.26;48.57;100182.06;4996026;28;66371;-49
2023/08/01 09:07:06;;;;;;;;;3.50;3.50;;;;;23.27;48.46;100179.28;4996912;28;45392;-43
2023/08/01 09:09:32;;;;;;;;;3.75;3.00;;;;;23.27;48.34;100176.66;4997047;28;45408;-41
2023/08/01 09:11:58;;;;;;;;;5.00;3.00;;;;;23.27;48.88;100181.09;4997139;28;45491;-45
2023/08/01 09:14:23;;;;;;;;;2.00;2.00;;;;;23.28;48.28;100177.50;4996566;28;46192;-48
2023/08/01 09:16:49;;;;;;;;;4.00;2.75;;;;;23.28;48.87;100182.78;4996624;28;45326;-46
2023/08/01 09:19:19;;;;;;;;;3.50;3.00;;;;;23.29;48.41;100184.47;4996866;28;45330;-45
2023/08/01 09:21:44;;;;;;;;;2.75;2.75;;;;;23.29;48.46;100187.13;4997281;28;45527;-44
2023/08/01 09:24:12;;;;;;;;;2.75;2.25;;;;;23.29;48.53;100180.03;4996572;28;46270;-44
2023/08/01 09:26:38;;;;;;;;;4.25;3.25;;;;;23.29;48.46;100177.38;4996631;28;45696;-47
2023/08/01 09:29:03;;;;;;;;;2.25;2.25;;;;;23.29;48.25;100185.31;4996553;28;45247;-46
2023/08/01 09:31:31;;;;;;;;;5.75;3.50;;;;;23.31;48.25;100185.22;4996780;28;45589;-45
2023/08/01 09:33:56;;;;;;;;;4.00;3.75;;;;;23.31;48.42;100195.78;4996417;28;46212;-49
2023/08/01 09:36:23;;;;;;;;;2.50;2.50;;;;;23.31;48.46;100195.78;4996384;28;45252;-44
2023/08/01 09:38:49;;;;;;;;;4.75;3.75;;;;;23.33;48.35;100190.38;4996606;28;45361;-46
2023/08/01 09:41:18;;;;;;;;;4.25;2.50;;;;;23.32;47.94;100192.16;4979358;28;45258;-46
2023/08/01 09:43:46;;;;;;;;;3.00;3.00;;;;;23.34;48.18;100192.88;4996615;28;46440;-41
2023/08/01 09:46:11;;;;;;;;;4.00;2.75;;;;;23.35;48.00;100180.53;4996369;28;45357;-43
2023/08/01 09:48:37;;;;;;;;;3.25;3.00;;;;;23.34;48.44;100186.75;4996761;28;45510;-44
2023/08/01 09:51:14;;;;;;;;;3.25;2.50;;;;;23.35;47.94;100189.28;4978994;28;45519;-44
2023/08/01 09:53:54;;;;;;;;;7.75;3.25;;;;;23.35;48.10;100183.16;4996200;28;46130;-45
2023/08/01 09:56:25;;;;;;;;;4.25;3.00;;;;;23.36;47.91;100188.31;4996286;28;45578;-47
2023/08/01 09:58:52;;;;;;;;;3.00;3.00;;;;;23.36;47.86;100196.25;4996287;28;45400;-45
2023/08/01 10:01:19;;;;;;;;;4.50;3.00;;;;;23.38;48.05;100193.47;4996746;28;45262;-47
2023/08/01 10:03:47;;;;;;;;;5.75;3.00;;;;;23.37;48.10;100197.13;4996436;28;45264;-43
2023/08/01 10:06:18;;;;;;;;;3.75;2.50;;;;;23.36;47.86;100190.97;4996281;28;45839;-45
2023/08/01 10:08:44;;;;;;;;;3.00;2.00;;;;;23.37;48.17;100186.53;4996600;28;45403;-47
2023/08/01 10:11:11;;;;;;;;;3.00;2.00;;;;;23.37;48.33;100181.25;4996325;28;45564;-46
2023/08/01 10:13:37;;;;;;;;;3.00;3.00;;;;;23.38;47.56;100186.41;4995918;28;46087;-42
2023/08/01 10:16:02;;;;;;;;;3.25;2.75;;;;;23.36;47.73;100180.38;4995903;28;45329;-43
2023/08/01 10:18:29;;;;;;;;;5.00;2.25;;;;;23.37;47.72;100197.94;4995971;28;45476;-46
2023/08/01 10:20:55;;;;;;;;;4.25;2.25;;;;;23.37;47.65;100189.19;4996251;28;45329;-48
2023/08/01 10:23:21;;;;;;;;;3.00;3.00;;;;;23.38;47.55;100204.91;4995715;28;46276;-45
2023/08/01 10:25:47;;;;;;;;;5.25;1.50;;;;;23.36;47.84;100201.53;4996182;28;45460;-43
2023/08/01 10:28:12;;;;;;;;;4.00;3.00;;;;;23.37;47.52;100203.22;4996030;28;45372;-42
2023/08/01 10:30:37;;;;;;;;;4.25;3.00;;;;;23.37;47.49;100191.81;4996146;28;45362;-46
2023/08/01 10:33:03;;;;;;;;;2.00;2.00;;;;;23.38;47.90;100189.06;4995728;28;45393;-46
2023/08/01 10:35:32;;;;;;;;;2.75;2.75;;;;;23.37;47.52;100182.06;4995776;28;45264;-49
2023/08/01 10:38:04;;;;;;;;;6.00;2.50;;;;;23.39;47.87;100179.31;4995825;28;45314;-42
2023/08/01 10:40:41;;;;;;;;;1.75;1.75;;;;;23.39;47.59;100174.88;4978323;28;45422;-46
2023/08/01 10:43:19;;;;;;;;;4.50;3.00;;;;;23.39;47.75;100181.94;4996899;28;46188;-42
2023/08/01 10:45:44;;;;;;;;;3.00;2.00;;;;;23.40;47.25;100188.91;4981421;28;45450;-44
2023/08/01 10:48:11;;;;;;;;;3.25;2.25;;;;;23.42;47.42;100187.00;4999033;28;45475;-42
2023/08/01 10:50:36;;;;;;;;;2.50;1.75;;;;;23.38;47.43;100202.28;4999231;28;45571;-45
2023/08/01 10:53:06;;;;;;;;;2.25;2.25;;;;;23.42;47.55;100202.88;4998824;28;45859;-43
2023/08/01 10:55:48;;;;;;;;;4.00;3.00;;;;;23.39;47.51;100198.66;4998913;28;45773;-44
2023/08/01 10:58:14;;;;;;;;;3.25;2.00;;;;;23.40;47.54;100203.00;4998957;28;45204;-43
2023/08/01 11:00:39;;;;;;;;;2.00;2.00;;;;;23.41;46.89;100209.97;4999043;28;45544;-46
2023/08/01 11:03:05;;;;;;;;;4.00;2.75;;;;;23.38;47.08;100194.34;4998761;28;45342;-46
2023/08/01 11:05:30;;;;;;;;;4.00;4.00;;;;;23.41;46.99;100198.53;4998651;28;45466;-46
2023/08/01 11:07:57;;;;;;;;;3.75;3.00;;;;;23.42;46.86;100208.16;4998934;28;45367;-45
2023/08/01 11:10:25;;;;;;;;;6.25;3.00;;;;;23.42;47.36;100214.31;4998882;28;45951;-42
2023/08/01 11:12:51;;;;;;;;;2.00;2.00;;;;;23.42;47.16;100206.38;4981188;28;46801;-42
2023/08/01 11:15:17;;;;;;;;;2.00;2.00;;;;;23.42;47.15;100209.03;4998427;28;45388;-42
2023/08/01 11:17:47;;;;;;;;;2.00;2.00;;;;;23.42;46.90;100211.66;4977640;28;45446;-41
2023/08/01 11:20:13;;;;;;;;;3.25;2.00;;;;;23.44;47.13;100206.25;4979351;28;45918;-42
2023/08/01 11:22:49;;;;;;;;;5.50;2.75;;;;;23.45;46.67;100213.22;4978707;28;47369;-43
2023/08/01 11:25:14;;;;;;;;;3.50;2.75;;;;;23.43;47.16;100208.03;4978957;28;45505;-45
2023/08/01 11:27:41;;;;;;;;;2.75;2.75;;;;;23.44;46.90;100196.50;4977579;28;45399;-47
2023/08/01 11:30:07;;;;;;;;;1.50;1.50;;;;;23.44;46.22;100204.44;4978970;28;45463;-44
2023/08/01 11:32:34;;;;;;;;;3.00;3.00;;;;;23.45;46.16;100206.13;4978587;28;46749;-44
2023/08/01 11:35:00;;;;;;;;;5.75;3.00;;;;;23.46;46.48;100206.97;4978631;28;45354;-42
2023/08/01 11:37:26;;;;;;;;;5.25;2.75;;;;;23.46;46.44;100204.31;4978725;28;45233;-45
2023/08/01 11:39:52;;;;;;;;;3.00;3.00;;;;;23.46;46.64;100205.16;4979159;28;45237;-46
2023/08/01 11:42:17;;;;;;;;;2.00;2.00;;;;;23.46;46.37;100205.16;4978406;28;46232;-46
2023/08/01 11:44:46;;;;;;;;;4.00;3.00;;;;;23.47;46.62;100204.19;4978235;28;45363;-41
2023/08/01 11:47:15;;;;;;;;;4.00;3.25;;;;;23.47;46.35;100198.91;4978679;28;45385;-46
2023/08/01 11:49:48;;;;;;;;;2.75;0.25;;;;;23.48;46.55;100199.75;4978712;28;45488;-41
2023/08/01 11:52:28;;;;;;;;;2.50;2.00;;;;;23.49;46.22;100200.59;4978280;28;46004;-44
2023/08/01 11:54:54;;;;;;;;;2.50;2.25;;;;;23.50;46.44;100191.69;4976345;28;45779;-44
2023/08/01 11:57:21;;;;;;;;;2.00;2.00;;;;;23.50;46.80;100186.41;4978671;28;45799;-45
2023/08/01 11:59:51;;;;;;;;;3.00;3.00;;;;;23.49;46.86;100187.38;4978533;28;45546;-43
2023/08/01 12:02:22;;;;;;;;;3.50;1.25;;;;;23.51;46.09;100188.09;4978267;28;45334;-46
2023/08/01 12:04:48;;;;;;;;;3.00;2.75;;;;;23.50;46.53;100192.53;4978171;28;45574;-49
2023/08/01 12:07:15;;;;;;;;;2.25;2.00;;;;;23.51;46.28;100198.69;4978215;28;45310;-46
2023/08/01 12:09:40;;;;;;;;;1.00;1.00;;;;;23.51;45.69;100190.75;4978521;28;45366;-47
2023/08/01 12:12:06;;;;;;;;;3.50;2.00;;;;;23.52;45.80;100195.06;4978076;28;46144;-45
2023/08/01 12:14:31;;;;;;;;;4.00;2.00;;;;;23.52;45.78;100210.94;4978000;28;45321;-47
2023/08/01 12:16:57;;;;;;;;;5.50;2.00;;;;;23.53;46.23;100204.69;4978147;28;45151;-45
2023/08/01 12:19:22;;;;;;;;;5.00;2.00;;;;;23.49;45.57;100196.13;4996219;28;45341;-48
2023/08/01 12:21:48;;;;;;;;;2.00;2.00;;;;;23.52;45.91;100197.72;4979843;28;48360;-49
2023/08/01 12:24:14;;;;;;;;;2.00;2.00;;;;;23.52;46.16;100195.91;4979762;28;45422;-44
2023/08/01 12:26:39;;;;;;;;;2.75;2.00;;;;;23.53;46.32;100197.59;4997609;28;45345;-42
2023/08/01 12:29:05;;;;;;;;;2.75;1.00;;;;;23.55;46.36;100194.81;4997793;28;45325;-45
2023/08/01 12:31:30;;;;;;;;;2.25;2.00;;;;;23.53;45.81;100187.00;4997444;28;45824;-44
2023/08/01 12:33:56;;;;;;;;;3.25;3.25;;;;;23.56;45.85;100201.78;4997759;28;45353;-44
2023/08/01 12:36:21;;;;;;;;;1.00;1.00;;;;;23.56;46.22;100192.06;4997366;28;45331;-47
2023/08/01 12:38:47;;;;;;;;;3.50;2.00;;;;;23.56;46.19;100180.63;4997759;28;46005;-45
2023/08/01 12:41:12;;;;;;;;;2.75;2.75;;;;;23.55;46.16;100189.53;4979493;28;48579;-48
2023/08/01 12:43:38;;;;;;;;;5.00;2.00;;;;;23.56;45.92;100175.34;4997390;28;45369;-45
2023/08/01 12:46:03;;;;;;;;;1.75;1.75;;;;;23.56;46.23;100181.47;4997319;28;45414;-45
2023/08/01 12:48:29;;;;;;;;;3.50;2.00;;;;;23.56;46.01;100181.47;4997472;28;45394;-43
2023/08/01 12:50:54;;;;;;;;;1.25;1.25;;;;;23.57;46.18;100195.53;4997233;28;48804;-46
2023/08/01 12:53:21;;;;;;;;;5.50;2.00;;;;;23.57;45.93;100192.88;4997153;28;45584;-46
2023/08/01 12:55:47;;;;;;;;;2.50;2.00;;;;;23.58;45.90;100194.56;4979671;28;45346;-47
2023/08/01 12:58:13;;;;;;;;;1.75;1.75;;;;;23.57;46.30;100184.94;4997303;28;45389;-47
2023/08/01 13:00:40;;;;;;;;;2.75;2.75;;;;;23.58;45.55;100181.34;4996946;28;46021;-44
2023/08/01 13:03:06;;;;;;;;;1.25;1.25;;;;;23.59;45.88;100190.97;4996959;28;45813;-47
2023/08/01 13:05:34;;;;;;;;;1.00;1.00;;;;;23.57;45.54;100177.88;4996695;28;45362;-48
2023/08/01 13:07:59;;;;;;;;;2.00;2.00;;;;;23.60;45.97;100190.00;4997214;28;45352;-42
2023/08/01 13:10:24;;;;;;;;;2.00;2.00;;;;;23.60;45.55;100197.94;4996757;28;55522;-46
2023/08/01 13:12:50;;;;;;;;;1.50;1.50;;;;;23.60;45.30;100203.25;4996454;28;57072;-42
2023/08/01 13:15:15;;;;;;;;;1.25;1.25;;;;;23.60;45.64;100195.31;4996521;28;53058;-43
2023/08/01 13:17:40;;;;;;;;;2.75;2.75;;;;;23.59;45.12;100196.25;4997022;28;45579;-45
2023/08/01 13:20:06;;;;;;;;;3.00;2.00;;;;;23.60;45.17;100208.53;4996007;28;65400;-44
2023/08/01 13:22:31;;;;;;;;;2.75;2.75;;;;;23.60;45.30;100206.72;4978956;28;45287;-47
2023/08/01 13:24:57;;;;;;;;;3.00;2.00;;;;;23.60;45.71;100219.94;4979383;28;45424;-46
2023/08/01 13:27:22;;;;;;;;;1.50;1.50;;;;;23.59;45.72;100212.97;4997019;28;45635;-44
2023/08/01 13:29:50;;;;;;;;;2.25;2.00;;;;;23.60;45.41;100211.19;4996250;28;51621;-43
2023/08/01 13:32:16;;;;;;;;;3.50;2.50;;;;;23.59;45.38;100210.31;4978850;28;45716;-44
2023/08/01 13:34:41;;;;;;;;;2.00;2.00;;;;;23.62;45.43;100219.84;4996067;28;53772;-44
2023/08/01 13:37:08;;;;;;;;;3.00;1.00;;;;;23.60;45.72;100216.47;4996709;28;45551;-41
2023/08/01 13:39:34;;;;;;;;;1.50;1.50;;;;;23.61;45.63;100216.34;4996368;28;46649;-44
2023/08/01 13:41:59;;;;;;;;;4.50;1.75;;;;;23.62;46.17;100222.47;4996741;28;45295;-44
2023/08/01 13:44:24;;;;;;;;;2.00;2.00;;;;;23.60;45.84;100203.25;4996095;28;54036;-40
2023/08/01 13:46:49;;;;;;;;;5.00;3.00;;;;;23.59;46.13;100201.56;4996174;28;51594;-42
2023/08/01 13:49:15;;;;;;;;;2.00;2.00;;;;;23.60;45.80;100213.81;4996291;28;45432;-41
2023/08/01 13:51:40;;;;;;;;;2.00;2.00;;;;;23.62;45.89;100215.38;4996417;28;45285;-43
2023/08/01 13:54:05;;;;;;;;;1.75;1.75;;;;;23.63;45.74;100203.00;4996079;28;51278;-45
2023/08/01 13:56:31;;;;;;;;;4.25;2.00;;;;;23.63;46.18;100203.84;4996336;28;49619;-45
2023/08/01 13:58:56;;;;;;;;;2.00;2.00;;;;;23.65;46.33;100205.53;4978390;28;49347;-43
2023/08/01 14:01:21;;;;;;;;;1.75;1.75;;;;;23.61;46.05;100203.09;4978497;28;45648;-44
2023/08/01 14:03:47;;;;;;;;;3.75;1.25;;;;;23.63;46.15;100205.66;4996168;28;45323;-44
2023/08/01 14:06:13;;;;;;;;;3.00;1.50;;;;;23.63;46.67;100203.84;4996430;28;45768;-44
2023/08/01 14:08:40;;;;;;;;;2.00;1.00;;;;;23.64;46.23;100207.34;4996078;28;45471;-43
2023/08/01 14:11:08;;;;;;;;;2.00;2.00;;;;;23.65;46.34;100202.88;4978501;28;45675;-49
2023/08/01 14:13:33;;;;;;;;;3.25;2.75;;;;;23.63;46.02;100203.84;4996272;28;45281;-41
2023/08/01 14:16:00;;;;;;;;;1.00;1.00;;;;;23.64;46.47;100215.28;4996677;28;45278;-45
2023/08/01 14:18:25;;;;;;;;;4.00;2.75;;;;;23.64;46.30;100199.41;4997333;28;46095;-44
2023/08/01 14:20:51;;;;;;;;;1.00;1.00;;;;;23.64;46.19;100204.69;4999187;28;47968;-46
2023/08/01 14:23:16;;;;;;;;;2.75;1.75;;;;;23.65;46.20;100209.00;4999560;28;45294;-46
2023/08/01 14:25:42;;;;;;;;;2.00;2.00;;;;;23.63;46.17;100195.91;4999713;28;45513;-46
2023/08/01 14:28:07;;;;;;;;;3.00;1.00;;;;;23.62;46.42;100199.50;4998941;28;55257;-43
2023/08/01 14:30:33;;;;;;;;;2.00;1.00;;;;;23.65;46.06;100201.06;4999563;28;45369;-45
2023/08/01 14:33:03;;;;;;;;;1.50;1.00;;;;;23.65;46.18;100210.81;4999314;28;45434;-44
2023/08/01 14:35:29;;;;;;;;;4.50;2.00;;;;;23.64;46.32;100215.28;4999495;28;45263;-43
2023/08/01 14:37:55;;;;;;;;;1.50;1.50;;;;;23.63;46.08;100208.28;4981423;28;47012;-45
2023/08/01 14:40:21;;;;;;;;;3.00;1.00;;;;;23.65;46.11;100216.94;4999123;28;45711;-44
2023/08/01 14:42:46;;;;;;;;;1.00;1.00;;;;;23.64;46.13;100209.97;4999195;28;45276;-46
2023/08/01 14:45:12;;;;;;;;;2.00;2.00;;;;;23.63;46.59;100214.41;4981617;28;45731;-45
2023/08/01 14:47:38;;;;;;;;;3.00;2.00;;;;;23.63;46.53;100213.59;4998792;28;47067;-43
2023/08/01 14:50:04;;;;;;;;;1.50;1.00;;;;;23.63;46.07;100209.13;4999395;28;45366;-46
2023/08/01 14:52:29;;;;;;;;;1.75;1.75;;;;;23.64;46.62;100207.34;4981364;28;45403;-46
2023/08/01 14:54:55;;;;;;;;;1.50;1.25;;;;;23.63;46.47;100209.13;4999202;28;45569;-42
2023/08/01 14:57:20;;;;;;;;;1.75;1.00;;;;;23.64;46.58;100209.97;4998980;28;45416;-45
2023/08/01 14:59:45;;;;;;;;;2.25;2.25;;;;;23.64;46.65;100207.34;4999040;28;45772;-45
2023/08/01 15:02:11;;;;;;;;;3.00;2.75;;;;;23.64;46.34;100204.69;4998923;28;45411;-48
2023/08/01 15:04:36;;;;;;;;;2.00;2.00;;;;;23.65;46.59;100214.28;4999023;28;45378;-44
2023/08/01 15:07:03;;;;;;;;;2.50;2.50;;;;;23.65;46.37;100221.38;4998961;28;46077;-45
2023/08/01 15:09:29;;;;;;;;;1.50;1.50;;;;;23.64;46.20;100220.56;4998637;28;45740;-46
2023/08/01 15:11:54;;;;;;;;;3.25;1.25;;;;;23.64;46.34;100220.56;4964759;28;45274;-44
2023/08/01 15:14:20;;;;;;;;;2.00;2.00;;;;;23.65;45.99;100216.09;4998388;28;53375;-43
2023/08/01 15:16:45;;;;;;;;;2.00;2.00;;;;;23.62;46.31;100211.91;4998253;28;46589;-42
2023/08/01 15:19:10;;;;;;;;;3.33;2.00;;;;;23.63;46.62;100203.84;4997686;28;65522;-45
2023/08/01 15:21:35;;;;;;;;;0.50;0.00;;;;;23.65;46.87;100202.88;4998860;28;45283;-46
2023/08/01 15:24:01;;;;;;;;;3.00;1.50;;;;;23.65;46.51;100202.88;4998726;28;45302;-44
2023/08/01 15:26:26;;;;;;;;;2.50;1.00;;;;;23.65;46.17;100201.06;4998189;28;45946;-45
2023/08/01 15:28:51;;;;;;;;;4.00;2.00;;;;;23.64;46.37;100196.75;4998242;28;45270;-44
2023/08/01 15:31:17;;;;;;;;;1.25;1.25;;;;;23.64;46.69;100202.03;4998458;28;45283;-46
2023/08/01 15:33:43;;;;;;;;;3.25;3.25;;;;;23.63;46.44;100203.00;4998240;28;46291;-45
2023/08/01 15:36:08;;;;;;;;;3.00;1.50;;;;;23.63;46.52;100201.19;4998133;28;47003;-45
2023/08/01 15:38:35;;;;;;;;;3.25;2.75;;;;;23.65;46.96;100216.94;4998503;28;45438;-42
2023/08/01 15:41:10;;;;;;;;;2.00;2.00;;;;;23.62;47.09;100219.84;4998338;28;45254;-49
2023/08/01 15:43:37;;;;;;;;;3.00;3.00;;;;;23.65;46.76;100222.22;4998869;28;45266;-50
2023/08/01 15:46:06;;;;;;;;;4.75;3.00;;;;;23.63;46.34;100217.06;4997971;28;45475;-43
2023/08/01 15:48:32;;;;;;;;;2.00;2.00;;;;;23.64;46.90;100209.97;4998133;28;45289;-45
2023/08/01 15:50:57;;;;;;;;;2.00;2.00;;;;;23.62;46.51;100218.03;4998088;28;45393;-44
2023/08/01 15:53:23;;;;;;;;;4.00;2.75;;;;;23.63;47.08;100203.00;4998478;28;45612;-44
2023/08/01 15:55:59;;;;;;;;;3.00;3.00;;;;;23.63;46.59;100195.06;4997863;28;45486;-43
2023/08/01 15:58:25;;;;;;;;;2.75;2.25;;;;;23.62;47.06;100196.84;4997771;28;45698;-44
2023/08/01 16:00:51;;;;;;;;;5.00;2.25;;;;;23.63;47.03;100182.66;4980420;28;45339;-43
2023/08/01 16:03:16;;;;;;;;;3.00;3.00;;;;;23.64;46.52;100183.53;4998147;28;45361;-46
2023/08/01 16:05:42;;;;;;;;;4.75;2.75;;;;;23.65;46.76;100181.72;4997741;28;46327;-43
2023/08/01 16:08:07;;;;;;;;;2.00;2.00;;;;;23.63;47.26;100171.25;4997799;28;50533;-44
2023/08/01 16:10:32;;;;;;;;;4.00;3.00;;;;;23.65;47.13;100174.59;4997915;28;45380;-46
2023/08/01 16:12:58;;;;;;;;;3.00;2.00;;;;;23.63;47.47;100166.78;4998106;28;45442;-43
2023/08/01 16:15:23;;;;;;;;;2.00;2.00;;;;;23.63;47.25;100164.16;4996994;28;64795;-42
2023/08/01 16:17:49;;;;;;;;;5.75;2.50;;;;;23.63;47.21;100150.94;4996905;28;60693;-41
2023/08/01 16:20:17;;;;;;;;;3.00;3.00;;;;;23.65;47.03;100158.72;4997696;28;45474;-44
2023/08/01 16:22:43;;;;;;;;;3.50;3.00;;;;;23.65;47.34;100157.91;4997806;28;45168;-45
2023/08/01 16:25:09;;;;;;;;;3.25;3.25;;;;;23.64;47.28;100146.50;4997790;28;46191;-44
2023/08/01 16:27:36;;;;;;;;;4.00;3.75;;;;;23.63;46.97;100144.81;4979837;28;45954;-44
2023/08/01 16:30:01;;;;;;;;;3.25;3.00;;;;;23.65;46.85;100142.03;4997626;28;45333;-49
2023/08/01 16:32:26;;;;;;;;;2.00;2.00;;;;;23.65;46.92;100142.84;4997816;28;45627;-42
2023/08/01 16:34:53;;;;;;;;;2.00;2.00;;;;;23.65;47.29;100142.84;4997267;28;47045;-46
2023/08/01 16:37:18;;;;;;;;;5.75;3.25;;;;;23.65;46.66;100145.50;4997272;28;45609;-43
2023/08/01 16:39:43;;;;;;;;;4.75;2.50;;;;;23.65;46.78;100137.56;4997384;28;45299;-42
2023/08/01 16:42:09;;;;;;;;;3.50;3.00;;;;;23.64;46.69;100133.25;4997284;28;45392;-45
2023/08/01 16:44:35;;;;;;;;;2.00;2.00;;;;;23.64;47.31;100138.56;4996956;28;51603;-41
2023/08/01 16:47:01;;;;;;;;;5.25;2.25;;;;;23.65;47.16;100147.31;4997264;28;45237;-44
2023/08/01 16:49:26;;;;;;;;;3.00;3.00;;;;;23.65;46.61;100148.16;4997379;28;45234;-43
2023/08/01 16:51:51;;;;;;;;;2.75;2.75;;;;;23.65;46.62;100145.50;4997547;28;45475;-46
2023/08/01 16:54:17;;;;;;;;;3.00;2.00;;;;;23.63;47.21;100140.34;4979363;28;47640;-45
2023/08/01 16:56:42;;;;;;;;;3.00;3.00;;;;;23.64;46.76;100135.91;4997315;28;45206;-49
2023/08/01 16:59:08;;;;;;;;;4.00;2.00;;;;;23.63;46.77;100142.16;4997555;28;45496;-44
2023/08/01 17:01:33;;;;;;;;;2.00;2.00;;;;;23.63;46.89;100140.34;4997355;28;45691;-46
2023/08/01 17:03:58;;;;;;;;;4.00;2.75;;;;;23.62;46.47;100130.72;4996818;28;47275;-42
2023/08/01 17:06:24;;;;;;;;;3.25;3.25;;;;;23.65;46.53;100134.91;4996544;28;54245;-43
2023/08/01 17:08:49;;;;;;;;;1.00;1.00;;;;;23.63;46.37;100126.28;4996986;28;45314;-43
2023/08/01 17:11:14;;;;;;;;;2.25;2.25;;;;;23.64;46.90;100125.34;4997176;28;45495;-47
2023/08/01 17:13:40;;;;;;;;;5.00;4.00;;;;;23.64;46.76;100135.91;4997022;28;46144;-45
2023/08/01 17:16:05;;;;;;;;;2.50;1.75;;;;;23.63;46.60;100134.22;4996045;28;66073;-45
2023/08/01 17:18:30;;;;;;;;;3.75;2.25;;;;;23.64;46.31;100135.91;4996525;28;45405;-45
2023/08/01 17:20:56;;;;;;;;;1.75;1.75;;;;;23.64;46.65;100125.34;4997031;28;45338;-44
2023/08/01 17:23:21;;;;;;;;;3.00;2.00;;;;;23.63;46.53;100123.66;4996500;28;46115;-43
2023/08/01 17:25:46;;;;;;;;;2.00;2.00;;;;;23.62;46.31;100114.84;4996652;28;45524;-44
2023/08/01 17:28:12;;;;;;;;;2.00;2.00;;;;;23.64;46.70;100114.75;4996984;28;45326;-44
2023/08/01 17:30:38;;;;;;;;;4.00;2.00;;;;;23.63;46.66;100110.41;4996728;28;45631;-44
2023/08/01 17:33:04;;;;;;;;;3.75;2.50;;;;;23.63;46.24;100121.81;4996458;28;46220;-43
2023/08/01 17:35:29;;;;;;;;;4.00;3.00;;;;;23.63;46.35;100123.66;4996611;28;45390;-43
2023/08/01 17:37:54;;;;;;;;;2.00;2.00;;;;;23.63;46.26;100123.66;4996157;28;52501;-44
2023/08/01 17:40:20;;;;;;;;;2.00;2.00;;;;;23.63;46.75;100127.13;4996739;28;45655;-45
2023/08/01 17:42:45;;;;;;;;;2.00;2.00;;;;;23.64;46.64;100127.97;4996422;28;47013;-40
2023/08/01 17:45:10;;;;;;;;;3.00;3.00;;;;;23.62;46.89;100125.44;4996697;28;45255;-46
2023/08/01 17:47:37;;;;;;;;;2.00;2.00;;;;;23.65;46.77;100131.44;4979012;28;45243;-45
2023/08/01 17:50:03;;;;;;;;;5.50;3.00;;;;;23.64;46.56;100135.91;4996650;28;45247;-46
2023/08/01 17:52:29;;;;;;;;;3.00;2.00;;;;;23.65;46.19;100136.75;4996650;28;46171;-46
2023/08/01 17:54:54;;;;;;;;;5.50;3.50;;;;;23.64;46.11;100141.19;4999928;28;45323;-41
2023/08/01 17:57:20;;;;;;;;;2.50;2.50;;;;;23.61;46.86;100131.69;4999668;28;48600;-42
2023/08/01 17:59:45;;;;;;;;;5.50;3.00;;;;;23.62;46.92;100138.66;4982723;28;45350;-43
2023/08/01 18:02:10;;;;;;;;;7.00;4.25;;;;;23.63;46.37;100143.00;4999714;28;46119;-44
2023/08/01 18:04:36;;;;;;;;;3.50;2.50;;;;;23.64;46.70;100141.19;4999578;28;45518;-44
2023/08/01 18:07:01;;;;;;;;;3.50;3.00;;;;;23.62;46.73;100154.53;5000124;28;45675;-44
2023/08/01 18:09:27;;;;;;;;;3.75;3.00;;;;;23.64;46.91;100146.50;5000022;28;45822;-46
2023/08/01 18:11:52;;;;;;;;;3.25;3.00;;;;;23.63;46.43;100156.22;4999195;28;50646;-45
2023/08/01 18:14:17;;;;;;;;;3.25;3.00;;;;;23.63;46.75;100155.38;4999479;28;45426;-45
2023/08/01 18:16:43;;;;;;;;;3.50;3.00;;;;;23.63;47.04;100161.50;4982292;28;45313;-46
2023/08/01 18:19:09;;;;;;;;;3.75;2.75;;;;;23.63;46.84;100150.09;4999446;28;45654;-47
2023/08/01 18:21:34;;;;;;;;;3.25;3.25;;;;;23.61;46.70;100142.25;4999375;28;45377;-47
2023/08/01 18:23:59;;;;;;;;;3.00;3.00;;;;;23.64;47.01;100141.19;4999399;28;45306;-46
2023/08/01 18:26:25;;;;;;;;;2.00;2.00;;;;;23.63;47.07;100140.34;4999493;28;45282;-43
2023/08/01 18:28:55;;;;;;;;;6.25;4.00;;;;;23.62;46.95;100119.31;4999707;28;45366;-45
2023/08/01 18:31:23;;;;;;;;;6.00;3.00;;;;;23.61;46.57;100122.91;4999315;28;46365;-44
2023/08/01 18:33:48;;;;;;;;;3.25;2.00;;;;;23.63;46.91;100131.59;4999523;28;45919;-46
2023/08/01 18:36:19;;;;;;;;;4.25;3.75;;;;;23.62;46.57;100133.38;4999689;28;45309;-48
2023/08/01 18:38:45;;;;;;;;;2.50;2.25;;;;;23.63;46.93;100118.34;4999815;28;45421;-43
2023/08/01 18:41:11;;;;;;;;;3.75;3.50;;;;;23.63;46.98;100123.66;4981463;28;46273;-48
2023/08/01 18:43:37;;;;;;;;;3.00;3.00;;;;;23.62;46.99;100138.66;4999090;28;45326;-45
2023/08/01 18:46:04;;;;;;;;;3.75;3.00;;;;;23.63;46.69;100145.63;4981709;28;45457;-40
2023/08/01 18:48:29;;;;;;;;;2.00;2.00;;;;;23.63;47.11;100147.44;4999466;28;45317;-41
2023/08/01 18:50:55;;;;;;;;;4.00;3.75;;;;;23.63;47.21;100150.09;4999005;28;45786;-48
2023/08/01 18:53:21;;;;;;;;;2.75;2.75;;;;;23.62;47.35;100153.72;4981266;28;45262;-43
2023/08/01 18:55:47;;;;;;;;;7.00;5.00;;;;;23.62;47.41;100145.78;4999328;28;45196;-44
2023/08/01 18:58:12;;;;;;;;;3.50;3.50;;;;;23.62;46.99;100137.84;4999141;28;45356;-45
2023/08/01 19:00:37;;;;;;;;;4.00;3.00;;;;;23.63;47.32;100144.81;4998896;28;46150;-43
2023/08/01 19:03:03;;;;;;;;;4.00;3.50;;;;;23.61;46.79;100136.16;4998421;28;46533;-47
2023/08/01 19:05:30;;;;;;;;;4.75;3.25;;;;;23.63;47.00;100139.53;4998866;28;45490;-46
2023/08/01 19:07:56;;;;;;;;;3.00;3.00;;;;;23.60;47.33;100127.34;4981317;28;45610;-48
2023/08/01 19:10:21;;;;;;;;;4.00;4.00;;;;;23.61;47.02;100131.69;4998652;28;46123;-44
2023/08/01 19:12:46;;;;;;;;;3.50;3.00;;;;;23.59;47.13;100123.03;4999204;28;45238;-46
2023/08/01 19:15:12;;;;;;;;;4.50;3.25;;;;;23.62;47.11;100130.72;4981135;28;45370;-42
2023/08/01 19:17:37;;;;;;;;;3.00;3.00;;;;;23.61;47.46;100126.41;4998703;28;45510;-46
2023/08/01 19:20:03;;;;;;;;;5.00;3.25;;;;;23.61;47.00;100099.94;4998012;28;63166;-47
2023/08/01 19:22:29;;;;;;;;;4.75;4.25;;;;;23.61;47.17;100099.13;4998531;28;45647;-42
2023/08/01 19:24:55;;;;;;;;;3.75;3.00;;;;;23.61;47.58;100102.59;4998794;28;45302;-49
2023/08/01 19:27:20;;;;;;;;;2.75;2.75;;;;;23.59;47.57;100116.91;4999030;28;45559;-48
2023/08/01 19:29:53;;;;;;;;;2.75;2.75;;;;;23.61;47.26;100134.34;4998043;28;55943;-42
2023/08/01 19:32:19;;;;;;;;;5.00;3.25;;;;;23.62;47.19;100114.03;4998774;28;45656;-47
2023/08/01 19:34:46;;;;;;;;;4.50;2.75;;;;;23.61;47.61;100099.13;4998571;28;45308;-47
2023/08/01 19:37:12;;;;;;;;;3.00;2.25;;;;;23.62;48.13;100100.81;4998540;28;45509;-50
2023/08/01 19:39:37;;;;;;;;;4.50;3.50;;;;;23.58;48.10;100110.78;4998147;28;45550;-49
2023/08/01 19:42:04;;;;;;;;;3.00;3.00;;;;;23.60;47.80;100115.94;4998388;28;45341;-46
2023/08/01 19:44:30;;;;;;;;;4.00;2.00;;;;;23.61;47.67;100125.56;4980679;28;45433;-45
2023/08/01 19:46:56;;;;;;;;;1.00;1.00;;;;;23.60;47.98;100124.72;4998529;28;45531;-43
2023/08/01 19:49:22;;;;;;;;;3.25;3.25;;;;;23.59;48.12;100123.03;4998335;28;45431;-47
2023/08/01 19:51:48;;;;;;;;;3.75;1.75;;;;;23.60;48.29;100126.53;4998004;28;45373;-48
2023/08/01 19:54:13;;;;;;;;;4.00;2.75;;;;;23.58;48.16;100115.22;4997441;28;45299;-44
2023/08/01 19:56:39;;;;;;;;;5.00;3.00;;;;;23.60;48.30;100114.13;4998285;28;45618;-45